Terminal Aerodrome Forecast
Issued by NWS

Home | Current Version | Previous Version | Graphics & Text | Print | Product List | Glossary On
Versions: 1 2 3 4 5 6 7 8 9 10 11 12 13 14 15 16 17 18
497
FTUS43 KMPX 201125
TAFAXN
TAF
KAXN 201125Z 2012/2112 02010KT 6SM BR VCSH SCT025 OVC080
      TEMPO 2012/2014 3SM -SN BKN025
     FM201400 33012G19KT P6SM OVC020
     FM202000 31015G23KT P6SM OVC035
     FM210300 29011KT P6SM SCT080
     FM210800 26008KT P6SM FEW250=

USA.gov is the U.S. government's official web portal to all federal, state and local government web resources and services.